TimeCST,TemperatureF,Dew PointF,Humidity,Sea Level PressureIn,VisibilityMPH,Wind Direction,Wind SpeedMPH,Gust SpeedMPH,PrecipitationIn,Events,Conditions,WindDirDegrees,DateUTC
12:15 AM,66.2,66.2,100,30.18,10.0,SE,5.8,-,N/A,Rain,Light Rain,130,2012-12-04 06:15:00
12:35 AM,66.2,66.2,100,30.17,10.0,SE,3.5,-,N/A,,Mostly Cloudy,130,2012-12-04 06:35:00
12:55 AM,66.2,66.2,100,30.17,10.0,Calm,Calm,-,N/A,,Scattered Clouds,0,2012-12-04 06:55:00
1:15 AM,66.2,66.2,100,30.17,10.0,ESE,3.5,-,N/A,,Clear,120,2012-12-04 07:15:00
1:35 AM,66.2,66.2,100,30.18,10.0,Calm,Calm,-,N/A,,Clear,0,2012-12-04 07:35:00
1:55 AM,66.2,64.4,94,30.18,10.0,Calm,Calm,-,N/A,,Clear,0,2012-12-04 07:55:00
2:15 AM,64.4,64.4,100,30.17,10.0,Calm,Calm,-,N/A,,Clear,0,2012-12-04 08:15:00
2:55 AM,62.6,62.6,100,30.17,10.0,ESE,3.5,-,N/A,,Clear,110,2012-12-04 08:55:00
3:15 AM,64.4,64.4,100,30.17,10.0,ESE,3.5,-,N/A,,Clear,120,2012-12-04 09:15:00
3:35 AM,64.4,64.4,100,30.17,10.0,Calm,Calm,-,N/A,,Clear,0,2012-12-04 09:35:00
4:15 AM,64.4,64.4,100,30.15,10.0,ESE,3.5,-,N/A,,Clear,120,2012-12-04 10:15:00
4:35 AM,64.4,64.4,100,30.15,10.0,ESE,3.5,-,N/A,,Clear,120,2012-12-04 10:35:00
4:55 AM,64.4,64.4,100,30.16,7.0,ESE,3.5,-,N/A,,Clear,120,2012-12-04 10:55:00
5:15 AM,64.4,64.4,100,30.17,10.0,SE,3.5,-,N/A,,Clear,130,2012-12-04 11:15:00
5:35 AM,64.4,64.4,100,30.17,7.0,SE,3.5,-,N/A,,Scattered Clouds,130,2012-12-04 11:35:00
5:55 AM,64.4,64.4,100,30.18,10.0,ESE,3.5,-,N/A,,Scattered Clouds,120,2012-12-04 11:55:00
6:15 AM,64.4,64.4,100,30.19,10.0,ESE,3.5,-,N/A,,Clear,120,2012-12-04 12:15:00
6:35 AM,66.2,66.2,100,30.19,10.0,ESE,4.6,-,N/A,,Scattered Clouds,110,2012-12-04 12:35:00
6:55 AM,64.4,64.4,100,30.21,10.0,Calm,Calm,-,N/A,,Mostly Cloudy,0,2012-12-04 12:55:00
7:15 AM,64.4,64.4,100,30.22,7.0,Calm,Calm,-,N/A,Rain,Light Rain,0,2012-12-04 13:15:00
7:35 AM,64.4,64.4,100,30.22,7.0,Calm,Calm,-,N/A,,Scattered Clouds,0,2012-12-04 13:35:00
7:55 AM,66.2,66.2,100,30.23,7.0,Calm,Calm,-,N/A,,Clear,0,2012-12-04 13:55:00
8:15 AM,68.0,68.0,100,30.22,10.0,ESE,4.6,-,N/A,,Clear,110,2012-12-04 14:15:00
8:35 AM,69.8,68.0,94,30.22,10.0,ESE,5.8,-,N/A,,Clear,110,2012-12-04 14:35:00
8:55 AM,69.8,68.0,94,30.23,10.0,SE,3.5,-,N/A,Thunderstorm,Clear,130,2012-12-04 14:55:00
9:15 AM,71.6,68.0,88,30.24,10.0,SE,5.8,-,N/A,,Clear,140,2012-12-04 15:15:00
9:35 AM,73.4,68.0,83,30.25,10.0,SSE,4.6,-,N/A,,Clear,150,2012-12-04 15:35:00
9:55 AM,73.4,68.0,83,30.25,10.0,SSE,5.8,-,N/A,,Clear,150,2012-12-04 15:55:00
10:15 AM,73.4,68.0,83,30.25,10.0,SSE,6.9,-,N/A,,Scattered Clouds,160,2012-12-04 16:15:00
10:35 AM,75.2,68.0,78,30.24,10.0,South,8.1,-,N/A,,Mostly Cloudy,170,2012-12-04 16:35:00
10:55 AM,77.0,68.0,74,30.24,10.0,SSE,6.9,-,N/A,,Mostly Cloudy,160,2012-12-04 16:55:00
11:15 AM,77.0,68.0,74,30.23,10.0,SSE,11.5,-,N/A,,Overcast,160,2012-12-04 17:15:00
11:35 AM,78.8,68.0,69,30.23,10.0,SSE,11.5,-,N/A,,Mostly Cloudy,150,2012-12-04 17:35:00
12:15 PM,75.2,66.2,73,30.21,10.0,South,5.8,-,N/A,,Overcast,170,2012-12-04 18:15:00
12:35 PM,77.0,66.2,69,30.20,10.0,SE,5.8,-,N/A,,Overcast,140,2012-12-04 18:35:00
12:55 PM,77.0,66.2,69,30.18,10.0,SE,5.8,-,N/A,,Scattered Clouds,140,2012-12-04 18:55:00
1:15 PM,77.0,66.2,69,30.17,10.0,SE,10.4,-,N/A,,Mostly Cloudy,140,2012-12-04 19:15:00
1:35 PM,75.2,66.2,73,30.17,10.0,SSE,9.2,-,N/A,Thunderstorm,Thunderstorm,160,2012-12-04 19:35:00
1:55 PM,73.4,66.2,78,30.16,10.0,SE,8.1,-,N/A,Thunderstorm,Clear,130,2012-12-04 19:55:00
2:15 PM,71.6,68.0,88,30.16,10.0,SE,6.9,-,N/A,Rain-Thunderstorm,Light Thunderstorms and Rain,140,2012-12-04 20:15:00
2:35 PM,71.6,68.0,88,30.17,10.0,SSE,4.6,-,N/A,Rain-Thunderstorm,Light Thunderstorms and Rain,160,2012-12-04 20:35:00
2:55 PM,69.8,68.0,94,30.17,7.0,Calm,Calm,-,N/A,Rain,Light Rain,0,2012-12-04 20:55:00
3:15 PM,69.8,68.0,94,30.18,4.0,SSE,5.8,-,N/A,Rain,Rain,160,2012-12-04 21:15:00
3:35 PM,68.0,68.0,100,30.17,5.0,South,5.8,-,N/A,Rain,Rain,170,2012-12-04 21:35:00
3:55 PM,68.0,66.2,94,30.16,7.0,SE,4.6,-,N/A,Rain,Rain,140,2012-12-04 21:55:00
4:15 PM,66.2,66.2,100,30.16,7.0,SSE,8.1,-,N/A,Rain,Rain,150,2012-12-04 22:15:00
4:35 PM,66.2,66.2,100,30.16,10.0,SE,9.2,-,N/A,Rain,Light Rain,140,2012-12-04 22:35:00
4:55 PM,66.2,66.2,100,30.15,10.0,SSE,11.5,-,N/A,Rain,Rain,150,2012-12-04 22:55:00
5:15 PM,66.2,66.2,100,30.16,10.0,SSE,8.1,-,N/A,Rain,Rain,150,2012-12-04 23:15:00
5:35 PM,66.2,64.4,94,30.15,10.0,SE,9.2,-,N/A,,Light Drizzle,140,2012-12-04 23:35:00
5:55 PM,64.4,64.4,100,30.17,10.0,Calm,Calm,-,N/A,Rain,Light Rain,0,2012-12-04 23:55:00
6:15 PM,64.4,64.4,100,30.18,10.0,Calm,Calm,-,N/A,Rain,Light Rain,0,2012-12-05 00:15:00
6:35 PM,64.4,64.4,100,30.19,10.0,Calm,Calm,-,N/A,,Mostly Cloudy,0,2012-12-05 00:35:00
6:55 PM,64.4,64.4,100,30.18,10.0,Calm,Calm,-,N/A,Rain,Light Rain,0,2012-12-05 00:55:00
7:15 PM,64.4,64.4,100,30.18,10.0,Calm,Calm,-,N/A,Rain,Light Rain,0,2012-12-05 01:15:00
7:35 PM,64.4,62.6,94,30.18,10.0,Calm,Calm,-,N/A,Rain,Light Rain,0,2012-12-05 01:35:00
7:55 PM,64.4,62.6,94,30.19,10.0,Calm,Calm,-,N/A,,Overcast,0,2012-12-05 01:55:00
8:15 PM,64.4,62.6,94,30.19,10.0,Calm,Calm,-,N/A,Rain,Light Rain,0,2012-12-05 02:15:00
8:35 PM,62.6,62.6,100,30.20,10.0,Calm,Calm,-,N/A,Rain,Light Rain,0,2012-12-05 02:35:00
8:55 PM,62.6,62.6,100,30.20,2.5,Calm,Calm,-,N/A,,Overcast,0,2012-12-05 02:55:00
9:15 PM,62.6,62.6,100,30.19,10.0,Calm,Calm,-,N/A,,Overcast,0,2012-12-05 03:15:00
9:35 PM,62.6,62.6,100,30.18,10.0,NW,4.6,-,N/A,Rain,Light Rain,310,2012-12-05 03:35:00
9:55 PM,62.6,62.6,100,30.17,10.0,NW,5.8,-,N/A,Rain-Thunderstorm,Light Thunderstorms and Rain,320,2012-12-05 03:55:00
10:15 PM,62.6,62.6,100,30.19,7.0,Calm,Calm,-,N/A,Rain-Thunderstorm,Rain,0,2012-12-05 04:15:00
10:35 PM,62.6,62.6,100,30.20,7.0,West,3.5,-,N/A,Rain-Thunderstorm,Thunderstorms and Rain,260,2012-12-05 04:35:00
10:55 PM,62.6,62.6,100,30.20,7.0,WNW,4.6,-,N/A,Rain-Thunderstorm,Rain,290,2012-12-05 04:55:00
11:15 PM,62.6,62.6,100,30.18,5.0,NNW,5.8,-,N/A,Rain-Thunderstorm,Thunderstorms and Rain,330,2012-12-05 05:15:00
11:35 PM,62.6,62.6,100,30.18,7.0,NNW,4.6,-,N/A,Rain,Rain,340,2012-12-05 05:35:00
11:55 PM,62.6,62.6,100,30.17,5.0,Calm,Calm,-,N/A,Rain,Heavy Rain,0,2012-12-05 05:55:00